sensor_id;sensor_type;location;lat;lon;timestamp;P1;durP1;ratioP1;P2;durP2;ratioP2
51066;SDS011;37112;45.892;-123.962;2023-12-14T00:01:14;6.80;;;2.00;;
51066;SDS011;37112;45.892;-123.962;2023-12-14T00:03:27;5.20;;;2.90;;
51066;SDS011;37112;45.892;-123.962;2023-12-14T00:05:41;8.10;;;3.00;;
51066;SDS011;37112;45.892;-123.962;2023-12-14T00:07:54;6.90;;;4.20;;
51066;SDS011;37112;45.892;-123.962;2023-12-14T00:10:08;12.90;;;7.60;;
51066;SDS011;37112;45.892;-123.962;2023-12-14T00:12:22;9.90;;;4.10;;
51066;SDS011;37112;45.892;-123.962;2023-12-14T00:14:35;3.60;;;1.70;;
51066;SDS011;37112;45.892;-123.962;2023-12-14T00:16:48;4.20;;;1.90;;
51066;SDS011;37112;45.892;-123.962;2023-12-14T00:19:02;2.30;;;1.10;;
51066;SDS011;37112;45.892;-123.962;2023-12-14T00:21:15;2.30;;;0.90;;
51066;SDS011;37112;45.892;-123.962;2023-12-14T00:23:28;5.00;;;1.40;;
51066;SDS011;37112;45.892;-123.962;2023-12-14T00:25:41;4.50;;;1.90;;
51066;SDS011;37112;45.892;-123.962;2023-12-14T00:27:55;5.20;;;1.10;;
51066;SDS011;37112;45.892;-123.962;2023-12-14T00:30:09;5.10;;;1.60;;
51066;SDS011;37112;45.892;-123.962;2023-12-14T00:32:23;18.40;;;3.20;;
51066;SDS011;37112;45.892;-123.962;2023-12-14T00:34:36;13.50;;;2.80;;
51066;SDS011;37112;45.892;-123.962;2023-12-14T00:36:50;12.10;;;3.10;;
51066;SDS011;37112;45.892;-123.962;2023-12-14T00:39:03;7.90;;;2.60;;
51066;SDS011;37112;45.892;-123.962;2023-12-14T00:41:17;16.70;;;2.10;;
51066;SDS011;37112;45.892;-123.962;2023-12-14T00:43:30;9.10;;;2.10;;
51066;SDS011;37112;45.892;-123.962;2023-12-14T00:45:44;7.60;;;2.60;;
51066;SDS011;37112;45.892;-123.962;2023-12-14T00:47:57;12.40;;;2.90;;
51066;SDS011;37112;45.892;-123.962;2023-12-14T00:50:10;4.90;;;1.40;;
51066;SDS011;37112;45.892;-123.962;2023-12-14T00:52:23;5.20;;;1.60;;
51066;SDS011;37112;45.892;-123.962;2023-12-14T00:54:37;7.20;;;1.70;;
51066;SDS011;37112;45.892;-123.962;2023-12-14T00:56:50;9.20;;;2.20;;
51066;SDS011;37112;45.892;-123.962;2023-12-14T00:59:03;13.90;;;2.80;;
51066;SDS011;37112;45.892;-123.962;2023-12-14T01:01:16;12.00;;;2.20;;
51066;SDS011;37112;45.892;-123.962;2023-12-14T01:03:30;9.10;;;2.10;;
51066;SDS011;37112;45.892;-123.962;2023-12-14T01:05:43;10.10;;;2.00;;
51066;SDS011;37112;45.892;-123.962;2023-12-14T01:07:56;5.80;;;1.40;;
51066;SDS011;37112;45.892;-123.962;2023-12-14T01:10:10;5.40;;;1.50;;
51066;SDS011;37112;45.892;-123.962;2023-12-14T01:12:23;7.50;;;2.00;;
51066;SDS011;37112;45.892;-123.962;2023-12-14T01:14:36;8.00;;;2.10;;
51066;SDS011;37112;45.892;-123.962;2023-12-14T01:16:49;7.10;;;2.20;;
51066;SDS011;37112;45.892;-123.962;2023-12-14T01:19:02;4.70;;;1.80;;
51066;SDS011;37112;45.892;-123.962;2023-12-14T01:21:16;8.60;;;1.50;;
51066;SDS011;37112;45.892;-123.962;2023-12-14T01:23:29;8.80;;;1.90;;
51066;SDS011;37112;45.892;-123.962;2023-12-14T01:25:42;6.50;;;1.80;;
51066;SDS011;37112;45.892;-123.962;2023-12-14T01:27:55;5.30;;;1.70;;
51066;SDS011;37112;45.892;-123.962;2023-12-14T01:30:09;7.40;;;1.30;;
51066;SDS011;37112;45.892;-123.962;2023-12-14T01:32:23;5.70;;;1.10;;
51066;SDS011;37112;45.892;-123.962;2023-12-14T01:34:36;5.40;;;1.40;;
51066;SDS011;37112;45.892;-123.962;2023-12-14T01:36:52;5.80;;;1.30;;
51066;SDS011;37112;45.892;-123.962;2023-12-14T01:39:05;9.10;;;1.50;;
51066;SDS011;37112;45.892;-123.962;2023-12-14T01:41:18;4.20;;;1.30;;
51066;SDS011;37112;45.892;-123.962;2023-12-14T01:43:31;5.80;;;1.20;;
51066;SDS011;37112;45.892;-123.962;2023-12-14T01:45:44;2.40;;;1.20;;
51066;SDS011;37112;45.892;-123.962;2023-12-14T01:47:57;5.50;;;1.30;;
51066;SDS011;37112;45.892;-123.962;2023-12-14T01:50:11;3.80;;;0.80;;
51066;SDS011;37112;45.892;-123.962;2023-12-14T01:52:26;4.50;;;1.20;;
51066;SDS011;37112;45.892;-123.962;2023-12-14T01:54:39;2.30;;;1.10;;
51066;SDS011;37112;45.892;-123.962;2023-12-14T01:56:52;3.70;;;1.50;;
51066;SDS011;37112;45.892;-123.962;2023-12-14T01:59:05;3.80;;;1.40;;
51066;SDS011;37112;45.892;-123.962;2023-12-14T02:01:20;2.60;;;1.30;;
51066;SDS011;37112;45.892;-123.962;2023-12-14T02:03:38;3.40;;;1.20;;
51066;SDS011;37112;45.892;-123.962;2023-12-14T02:05:57;5.90;;;1.20;;
51066;SDS011;37112;45.892;-123.962;2023-12-14T02:08:10;3.30;;;1.00;;
51066;SDS011;37112;45.892;-123.962;2023-12-14T02:10:23;2.70;;;1.30;;
51066;SDS011;37112;45.892;-123.962;2023-12-14T02:12:36;2.10;;;1.10;;
51066;SDS011;37112;45.892;-123.962;2023-12-14T02:14:50;3.10;;;1.10;;
51066;SDS011;37112;45.892;-123.962;2023-12-14T02:17:06;2.70;;;1.10;;
51066;SDS011;37112;45.892;-123.962;2023-12-14T02:19:19;2.30;;;0.90;;
51066;SDS011;37112;45.892;-123.962;2023-12-14T02:21:32;3.30;;;1.00;;
51066;SDS011;37112;45.892;-123.962;2023-12-14T02:23:45;1.90;;;1.20;;
51066;SDS011;37112;45.892;-123.962;2023-12-14T02:25:59;3.80;;;0.90;;
51066;SDS011;37112;45.892;-123.962;2023-12-14T02:28:12;2.40;;;1.00;;
51066;SDS011;37112;45.892;-123.962;2023-12-14T02:30:25;5.20;;;1.40;;
51066;SDS011;37112;45.892;-123.962;2023-12-14T02:32:39;2.00;;;1.20;;
51066;SDS011;37112;45.892;-123.962;2023-12-14T02:34:52;19.20;;;3.10;;
51066;SDS011;37112;45.892;-123.962;2023-12-14T02:37:06;4.70;;;1.50;;
51066;SDS011;37112;45.892;-123.962;2023-12-14T02:39:19;3.00;;;1.10;;
51066;SDS011;37112;45.892;-123.962;2023-12-14T02:41:32;3.80;;;1.00;;
51066;SDS011;37112;45.892;-123.962;2023-12-14T02:43:46;2.10;;;0.90;;
51066;SDS011;37112;45.892;-123.962;2023-12-14T02:45:59;2.60;;;1.00;;
51066;SDS011;37112;45.892;-123.962;2023-12-14T02:48:13;1.90;;;1.00;;
51066;SDS011;37112;45.892;-123.962;2023-12-14T02:50:27;6.50;;;1.00;;
51066;SDS011;37112;45.892;-123.962;2023-12-14T02:52:40;3.70;;;1.20;;
51066;SDS011;37112;45.892;-123.962;2023-12-14T02:54:53;1.70;;;1.20;;
51066;SDS011;37112;45.892;-123.962;2023-12-14T02:57:06;5.80;;;1.50;;
51066;SDS011;37112;45.892;-123.962;2023-12-14T02:59:19;1.80;;;1.00;;
51066;SDS011;37112;45.892;-123.962;2023-12-14T03:01:32;3.70;;;1.10;;
51066;SDS011;37112;45.892;-123.962;2023-12-14T03:03:46;1.70;;;1.10;;
51066;SDS011;37112;45.892;-123.962;2023-12-14T03:05:59;3.90;;;1.50;;
51066;SDS011;37112;45.892;-123.962;2023-12-14T03:08:12;5.70;;;1.40;;
51066;SDS011;37112;45.892;-123.962;2023-12-14T03:10:25;25.60;;;2.60;;
51066;SDS011;37112;45.892;-123.962;2023-12-14T03:12:38;3.00;;;1.40;;
51066;SDS011;37112;45.892;-123.962;2023-12-14T03:14:51;3.30;;;1.10;;
51066;SDS011;37112;45.892;-123.962;2023-12-14T03:17:05;4.40;;;0.90;;
51066;SDS011;37112;45.892;-123.962;2023-12-14T03:19:20;3.50;;;1.00;;
51066;SDS011;37112;45.892;-123.962;2023-12-14T03:21:34;6.20;;;1.20;;
51066;SDS011;37112;45.892;-123.962;2023-12-14T03:23:47;1.80;;;0.90;;
51066;SDS011;37112;45.892;-123.962;2023-12-14T03:26:00;5.60;;;0.90;;
51066;SDS011;37112;45.892;-123.962;2023-12-14T03:28:14;4.40;;;1.10;;
51066;SDS011;37112;45.892;-123.962;2023-12-14T03:30:27;3.40;;;0.90;;
51066;SDS011;37112;45.892;-123.962;2023-12-14T03:32:40;3.60;;;1.10;;
51066;SDS011;37112;45.892;-123.962;2023-12-14T03:34:53;6.50;;;3.10;;
51066;SDS011;37112;45.892;-123.962;2023-12-14T03:37:07;12.50;;;2.80;;
51066;SDS011;37112;45.892;-123.962;2023-12-14T03:39:20;7.70;;;1.50;;
51066;SDS011;37112;45.892;-123.962;2023-12-14T03:41:34;11.10;;;2.90;;
51066;SDS011;37112;45.892;-123.962;2023-12-14T03:43:47;12.30;;;2.90;;
51066;SDS011;37112;45.892;-123.962;2023-12-14T03:46:01;13.20;;;2.50;;
51066;SDS011;37112;45.892;-123.962;2023-12-14T03:48:14;13.80;;;4.80;;
51066;SDS011;37112;45.892;-123.962;2023-12-14T03:50:28;12.90;;;3.40;;
51066;SDS011;37112;45.892;-123.962;2023-12-14T03:52:42;22.80;;;5.50;;
51066;SDS011;37112;45.892;-123.962;2023-12-14T03:54:56;27.80;;;5.00;;
51066;SDS011;37112;45.892;-123.962;2023-12-14T03:57:09;16.80;;;5.80;;
51066;SDS011;37112;45.892;-123.962;2023-12-14T03:59:24;21.50;;;4.00;;
51066;SDS011;37112;45.892;-123.962;2023-12-14T04:01:39;24.60;;;4.60;;
51066;SDS011;37112;45.892;-123.962;2023-12-14T04:03:53;25.80;;;6.10;;
51066;SDS011;37112;45.892;-123.962;2023-12-14T04:06:06;34.60;;;7.30;;
51066;SDS011;37112;45.892;-123.962;2023-12-14T04:08:19;22.60;;;6.10;;
51066;SDS011;37112;45.892;-123.962;2023-12-14T04:10:31;29.80;;;6.00;;
51066;SDS011;37112;45.892;-123.962;2023-12-14T04:12:44;27.80;;;6.60;;
51066;SDS011;37112;45.892;-123.962;2023-12-14T04:17:07;34.40;;;5.30;;
51066;SDS011;37112;45.892;-123.962;2023-12-14T04:19:20;17.70;;;5.90;;
51066;SDS011;37112;45.892;-123.962;2023-12-14T04:21:33;32.80;;;4.80;;
51066;SDS011;37112;45.892;-123.962;2023-12-14T04:23:46;29.40;;;7.90;;
51066;SDS011;37112;45.892;-123.962;2023-12-14T04:26:05;35.70;;;10.80;;
51066;SDS011;37112;45.892;-123.962;2023-12-14T04:28:18;26.60;;;6.40;;
51066;SDS011;37112;45.892;-123.962;2023-12-14T04:30:31;20.00;;;5.50;;
51066;SDS011;37112;45.892;-123.962;2023-12-14T04:32:45;17.60;;;4.60;;
51066;SDS011;37112;45.892;-123.962;2023-12-14T04:34:58;20.40;;;6.50;;
51066;SDS011;37112;45.892;-123.962;2023-12-14T04:37:12;22.50;;;6.80;;
51066;SDS011;37112;45.892;-123.962;2023-12-14T04:39:25;23.90;;;4.50;;
51066;SDS011;37112;45.892;-123.962;2023-12-14T04:41:38;22.30;;;4.10;;
51066;SDS011;37112;45.892;-123.962;2023-12-14T04:43:51;21.80;;;6.20;;
51066;SDS011;37112;45.892;-123.962;2023-12-14T04:46:04;29.60;;;8.60;;
51066;SDS011;37112;45.892;-123.962;2023-12-14T04:48:17;55.50;;;13.60;;
51066;SDS011;37112;45.892;-123.962;2023-12-14T04:50:32;44.80;;;11.30;;
51066;SDS011;37112;45.892;-123.962;2023-12-14T04:52:45;25.30;;;6.20;;
51066;SDS011;37112;45.892;-123.962;2023-12-14T04:55:02;32.20;;;7.40;;
51066;SDS011;37112;45.892;-123.962;2023-12-14T04:57:16;48.60;;;7.60;;
51066;SDS011;37112;45.892;-123.962;2023-12-14T04:59:29;44.40;;;9.30;;
51066;SDS011;37112;45.892;-123.962;2023-12-14T05:01:42;41.60;;;10.90;;
51066;SDS011;37112;45.892;-123.962;2023-12-14T05:03:55;80.00;;;20.30;;
51066;SDS011;37112;45.892;-123.962;2023-12-14T05:06:09;66.00;;;15.70;;
51066;SDS011;37112;45.892;-123.962;2023-12-14T05:08:22;41.60;;;7.40;;
51066;SDS011;37112;45.892;-123.962;2023-12-14T05:10:35;54.50;;;16.00;;
51066;SDS011;37112;45.892;-123.962;2023-12-14T05:12:48;57.00;;;19.30;;
51066;SDS011;37112;45.892;-123.962;2023-12-14T05:15:02;26.80;;;6.20;;
51066;SDS011;37112;45.892;-123.962;2023-12-14T05:17:15;33.90;;;8.50;;
51066;SDS011;37112;45.892;-123.962;2023-12-14T05:19:28;25.60;;;5.50;;
51066;SDS011;37112;45.892;-123.962;2023-12-14T05:21:42;19.80;;;5.70;;
51066;SDS011;37112;45.892;-123.962;2023-12-14T05:23:55;59.80;;;17.50;;
51066;SDS011;37112;45.892;-123.962;2023-12-14T05:26:10;72.50;;;20.80;;
51066;SDS011;37112;45.892;-123.962;2023-12-14T05:28:23;67.50;;;17.40;;
51066;SDS011;37112;45.892;-123.962;2023-12-14T05:30:36;47.10;;;12.80;;
51066;SDS011;37112;45.892;-123.962;2023-12-14T05:32:49;31.80;;;6.90;;
51066;SDS011;37112;45.892;-123.962;2023-12-14T05:35:02;41.50;;;9.80;;
51066;SDS011;37112;45.892;-123.962;2023-12-14T05:37:15;47.20;;;11.60;;
51066;SDS011;37112;45.892;-123.962;2023-12-14T05:39:28;66.00;;;15.90;;
51066;SDS011;37112;45.892;-123.962;2023-12-14T05:41:41;35.70;;;7.40;;
51066;SDS011;37112;45.892;-123.962;2023-12-14T05:43:54;37.60;;;8.60;;
51066;SDS011;37112;45.892;-123.962;2023-12-14T05:46:07;29.40;;;6.00;;
51066;SDS011;37112;45.892;-123.962;2023-12-14T05:48:30;90.00;;;23.10;;
51066;SDS011;37112;45.892;-123.962;2023-12-14T05:50:44;63.00;;;16.40;;
51066;SDS011;37112;45.892;-123.962;2023-12-14T05:52:57;28.00;;;6.10;;
51066;SDS011;37112;45.892;-123.962;2023-12-14T05:55:09;52.90;;;14.10;;
51066;SDS011;37112;45.892;-123.962;2023-12-14T05:57:23;44.80;;;11.10;;
51066;SDS011;37112;45.892;-123.962;2023-12-14T05:59:36;53.80;;;13.60;;
51066;SDS011;37112;45.892;-123.962;2023-12-14T06:01:49;38.50;;;9.70;;
51066;SDS011;37112;45.892;-123.962;2023-12-14T06:04:06;33.30;;;7.40;;
51066;SDS011;37112;45.892;-123.962;2023-12-14T06:06:19;38.20;;;11.30;;
51066;SDS011;37112;45.892;-123.962;2023-12-14T06:08:31;55.70;;;13.30;;
51066;SDS011;37112;45.892;-123.962;2023-12-14T06:10:44;73.30;;;19.40;;
51066;SDS011;37112;45.892;-123.962;2023-12-14T06:12:57;55.80;;;12.70;;
51066;SDS011;37112;45.892;-123.962;2023-12-14T06:15:10;36.60;;;7.80;;
51066;SDS011;37112;45.892;-123.962;2023-12-14T06:17:23;30.70;;;6.00;;
51066;SDS011;37112;45.892;-123.962;2023-12-14T06:19:37;33.60;;;8.60;;
51066;SDS011;37112;45.892;-123.962;2023-12-14T06:21:50;35.80;;;8.60;;
51066;SDS011;37112;45.892;-123.962;2023-12-14T06:24:03;27.60;;;6.60;;
51066;SDS011;37112;45.892;-123.962;2023-12-14T06:26:16;40.40;;;9.50;;
51066;SDS011;37112;45.892;-123.962;2023-12-14T06:28:29;49.80;;;13.00;;
51066;SDS011;37112;45.892;-123.962;2023-12-14T06:30:41;25.00;;;6.10;;
51066;SDS011;37112;45.892;-123.962;2023-12-14T06:32:55;22.20;;;5.20;;
51066;SDS011;37112;45.892;-123.962;2023-12-14T06:35:08;60.80;;;18.30;;
51066;SDS011;37112;45.892;-123.962;2023-12-14T06:37:21;33.00;;;6.80;;
51066;SDS011;37112;45.892;-123.962;2023-12-14T06:39:34;24.80;;;5.10;;
51066;SDS011;37112;45.892;-123.962;2023-12-14T06:41:47;17.70;;;5.50;;
51066;SDS011;37112;45.892;-123.962;2023-12-14T06:44:03;23.60;;;5.30;;
51066;SDS011;37112;45.892;-123.962;2023-12-14T06:46:17;35.80;;;8.60;;
51066;SDS011;37112;45.892;-123.962;2023-12-14T06:48:29;39.90;;;7.10;;
51066;SDS011;37112;45.892;-123.962;2023-12-14T06:50:42;52.00;;;13.20;;
51066;SDS011;37112;45.892;-123.962;2023-12-14T06:55:06;24.00;;;5.70;;
51066;SDS011;37112;45.892;-123.962;2023-12-14T06:57:19;14.30;;;2.90;;
51066;SDS011;37112;45.892;-123.962;2023-12-14T06:59:33;9.10;;;2.70;;
51066;SDS011;37112;45.892;-123.962;2023-12-14T07:01:45;13.40;;;3.70;;
51066;SDS011;37112;45.892;-123.962;2023-12-14T07:03:59;12.30;;;4.00;;
51066;SDS011;37112;45.892;-123.962;2023-12-14T07:06:13;60.90;;;15.40;;
51066;SDS011;37112;45.892;-123.962;2023-12-14T07:08:26;19.20;;;4.30;;
51066;SDS011;37112;45.892;-123.962;2023-12-14T07:10:40;9.70;;;2.90;;
51066;SDS011;37112;45.892;-123.962;2023-12-14T07:12:53;9.40;;;2.40;;
51066;SDS011;37112;45.892;-123.962;2023-12-14T07:15:07;8.40;;;2.20;;
51066;SDS011;37112;45.892;-123.962;2023-12-14T07:17:20;8.60;;;2.50;;
51066;SDS011;37112;45.892;-123.962;2023-12-14T07:19:33;26.30;;;2.70;;
51066;SDS011;37112;45.892;-123.962;2023-12-14T07:21:46;18.90;;;5.60;;
51066;SDS011;37112;45.892;-123.962;2023-12-14T07:24:00;12.50;;;3.10;;
51066;SDS011;37112;45.892;-123.962;2023-12-14T07:26:13;14.20;;;2.50;;
51066;SDS011;37112;45.892;-123.962;2023-12-14T07:28:25;30.80;;;9.50;;
51066;SDS011;37112;45.892;-123.962;2023-12-14T07:30:39;13.30;;;3.00;;
51066;SDS011;37112;45.892;-123.962;2023-12-14T07:32:52;8.30;;;2.50;;
51066;SDS011;37112;45.892;-123.962;2023-12-14T07:35:06;44.10;;;14.20;;
51066;SDS011;37112;45.892;-123.962;2023-12-14T07:37:19;24.50;;;7.30;;
51066;SDS011;37112;45.892;-123.962;2023-12-14T07:39:32;34.50;;;5.90;;
51066;SDS011;37112;45.892;-123.962;2023-12-14T07:41:45;22.60;;;4.90;;
51066;SDS011;37112;45.892;-123.962;2023-12-14T07:43:58;8.30;;;2.10;;
51066;SDS011;37112;45.892;-123.962;2023-12-14T07:46:12;9.00;;;2.20;;
51066;SDS011;37112;45.892;-123.962;2023-12-14T07:48:25;7.50;;;1.50;;
51066;SDS011;37112;45.892;-123.962;2023-12-14T07:50:38;3.90;;;1.30;;
51066;SDS011;37112;45.892;-123.962;2023-12-14T07:52:51;3.40;;;1.80;;
51066;SDS011;37112;45.892;-123.962;2023-12-14T07:55:04;6.00;;;1.40;;
51066;SDS011;37112;45.892;-123.962;2023-12-14T07:57:18;3.50;;;1.20;;
51066;SDS011;37112;45.892;-123.962;2023-12-14T07:59:32;3.00;;;1.80;;
51066;SDS011;37112;45.892;-123.962;2023-12-14T08:01:45;2.60;;;1.10;;
51066;SDS011;37112;45.892;-123.962;2023-12-14T08:03:57;3.20;;;1.30;;
51066;SDS011;37112;45.892;-123.962;2023-12-14T08:06:11;1.70;;;1.20;;
51066;SDS011;37112;45.892;-123.962;2023-12-14T08:08:25;1.10;;;0.90;;
51066;SDS011;37112;45.892;-123.962;2023-12-14T08:12:48;3.10;;;1.30;;
51066;SDS011;37112;45.892;-123.962;2023-12-14T08:15:01;3.40;;;1.40;;
51066;SDS011;37112;45.892;-123.962;2023-12-14T08:17:15;2.60;;;0.90;;
51066;SDS011;37112;45.892;-123.962;2023-12-14T08:19:28;1.60;;;1.10;;
51066;SDS011;37112;45.892;-123.962;2023-12-14T08:21:41;3.90;;;1.30;;
51066;SDS011;37112;45.892;-123.962;2023-12-14T08:23:54;2.70;;;1.10;;
51066;SDS011;37112;45.892;-123.962;2023-12-14T08:26:08;1.70;;;1.00;;
51066;SDS011;37112;45.892;-123.962;2023-12-14T08:28:21;3.70;;;1.50;;
51066;SDS011;37112;45.892;-123.962;2023-12-14T08:30:34;5.30;;;1.20;;
51066;SDS011;37112;45.892;-123.962;2023-12-14T08:32:47;1.30;;;1.00;;
51066;SDS011;37112;45.892;-123.962;2023-12-14T08:35:00;2.40;;;1.20;;
51066;SDS011;37112;45.892;-123.962;2023-12-14T08:37:13;1.80;;;1.20;;
51066;SDS011;37112;45.892;-123.962;2023-12-14T08:39:26;2.10;;;1.10;;
51066;SDS011;37112;45.892;-123.962;2023-12-14T08:43:48;2.10;;;1.00;;
51066;SDS011;37112;45.892;-123.962;2023-12-14T08:46:01;3.00;;;1.40;;
51066;SDS011;37112;45.892;-123.962;2023-12-14T08:48:14;1.90;;;1.30;;
51066;SDS011;37112;45.892;-123.962;2023-12-14T08:50:27;4.80;;;1.20;;
51066;SDS011;37112;45.892;-123.962;2023-12-14T08:52:40;1.80;;;1.10;;
51066;SDS011;37112;45.892;-123.962;2023-12-14T08:54:53;1.90;;;1.10;;
51066;SDS011;37112;45.892;-123.962;2023-12-14T08:57:06;2.10;;;1.20;;
51066;SDS011;37112;45.892;-123.962;2023-12-14T08:59:19;3.50;;;1.60;;
51066;SDS011;37112;45.892;-123.962;2023-12-14T09:01:31;5.00;;;2.10;;
51066;SDS011;37112;45.892;-123.962;2023-12-14T09:03:44;7.10;;;2.80;;
51066;SDS011;37112;45.892;-123.962;2023-12-14T09:05:57;4.60;;;1.70;;
51066;SDS011;37112;45.892;-123.962;2023-12-14T09:08:13;4.70;;;2.30;;
51066;SDS011;37112;45.892;-123.962;2023-12-14T09:10:26;7.30;;;2.20;;
51066;SDS011;37112;45.892;-123.962;2023-12-14T09:12:39;11.80;;;1.90;;
51066;SDS011;37112;45.892;-123.962;2023-12-14T09:14:52;2.80;;;1.30;;
51066;SDS011;37112;45.892;-123.962;2023-12-14T09:17:05;3.00;;;1.20;;
51066;SDS011;37112;45.892;-123.962;2023-12-14T09:19:18;3.00;;;1.00;;
51066;SDS011;37112;45.892;-123.962;2023-12-14T09:21:30;1.40;;;1.00;;
51066;SDS011;37112;45.892;-123.962;2023-12-14T09:23:52;1.60;;;1.40;;
51066;SDS011;37112;45.892;-123.962;2023-12-14T09:26:04;2.00;;;0.90;;
51066;SDS011;37112;45.892;-123.962;2023-12-14T09:28:18;2.10;;;1.40;;
51066;SDS011;37112;45.892;-123.962;2023-12-14T09:30:31;3.90;;;1.30;;
51066;SDS011;37112;45.892;-123.962;2023-12-14T09:32:44;2.70;;;1.20;;
51066;SDS011;37112;45.892;-123.962;2023-12-14T09:34:57;4.10;;;0.90;;
51066;SDS011;37112;45.892;-123.962;2023-12-14T09:37:10;2.50;;;1.00;;
51066;SDS011;37112;45.892;-123.962;2023-12-14T09:39:24;1.30;;;1.00;;
51066;SDS011;37112;45.892;-123.962;2023-12-14T09:41:37;1.50;;;1.10;;
51066;SDS011;37112;45.892;-123.962;2023-12-14T09:43:50;1.80;;;1.00;;
51066;SDS011;37112;45.892;-123.962;2023-12-14T09:46:05;1.70;;;0.90;;
51066;SDS011;37112;45.892;-123.962;2023-12-14T09:48:19;2.20;;;1.30;;
51066;SDS011;37112;45.892;-123.962;2023-12-14T09:50:32;1.50;;;1.10;;
51066;SDS011;37112;45.892;-123.962;2023-12-14T09:52:47;1.30;;;0.90;;
51066;SDS011;37112;45.892;-123.962;2023-12-14T09:55:00;1.00;;;0.90;;
51066;SDS011;37112;45.892;-123.962;2023-12-14T09:57:14;5.10;;;0.90;;
51066;SDS011;37112;45.892;-123.962;2023-12-14T09:59:28;3.00;;;1.00;;
51066;SDS011;37112;45.892;-123.962;2023-12-14T10:01:41;1.60;;;0.80;;
51066;SDS011;37112;45.892;-123.962;2023-12-14T10:04:06;1.10;;;0.80;;
51066;SDS011;37112;45.892;-123.962;2023-12-14T10:06:20;1.90;;;0.80;;
51066;SDS011;37112;45.892;-123.962;2023-12-14T10:08:34;0.60;;;0.60;;
51066;SDS011;37112;45.892;-123.962;2023-12-14T10:10:49;1.70;;;0.90;;
51066;SDS011;37112;45.892;-123.962;2023-12-14T10:13:03;1.60;;;0.80;;
51066;SDS011;37112;45.892;-123.962;2023-12-14T10:15:20;1.00;;;0.70;;
51066;SDS011;37112;45.892;-123.962;2023-12-14T10:17:33;3.30;;;1.00;;
51066;SDS011;37112;45.892;-123.962;2023-12-14T10:19:47;2.80;;;0.90;;
51066;SDS011;37112;45.892;-123.962;2023-12-14T10:22:00;1.30;;;0.80;;
51066;SDS011;37112;45.892;-123.962;2023-12-14T10:24:16;1.40;;;0.60;;
51066;SDS011;37112;45.892;-123.962;2023-12-14T10:26:29;1.90;;;1.00;;
51066;SDS011;37112;45.892;-123.962;2023-12-14T10:28:43;1.70;;;0.80;;
51066;SDS011;37112;45.892;-123.962;2023-12-14T10:30:57;1.10;;;0.70;;
51066;SDS011;37112;45.892;-123.962;2023-12-14T10:36:34;0.80;;;0.70;;
51066;SDS011;37112;45.892;-123.962;2023-12-14T10:39:08;1.20;;;0.80;;
51066;SDS011;37112;45.892;-123.962;2023-12-14T10:41:41;0.80;;;0.60;;
51066;SDS011;37112;45.892;-123.962;2023-12-14T10:44:26;2.70;;;0.70;;
51066;SDS011;37112;45.892;-123.962;2023-12-14T10:47:20;0.70;;;0.60;;
51066;SDS011;37112;45.892;-123.962;2023-12-14T10:49:55;1.10;;;0.70;;
51066;SDS011;37112;45.892;-123.962;2023-12-14T10:52:31;0.80;;;0.70;;
51066;SDS011;37112;45.892;-123.962;2023-12-14T10:54:54;0.80;;;0.70;;
51066;SDS011;37112;45.892;-123.962;2023-12-14T10:57:32;1.00;;;0.60;;
51066;SDS011;37112;45.892;-123.962;2023-12-14T11:00:12;1.50;;;0.70;;
51066;SDS011;37112;45.892;-123.962;2023-12-14T11:02:47;1.20;;;0.80;;
51066;SDS011;37112;45.892;-123.962;2023-12-14T11:05:23;0.60;;;0.60;;
51066;SDS011;37112;45.892;-123.962;2023-12-14T11:07:52;0.90;;;0.80;;
51066;SDS011;37112;45.892;-123.962;2023-12-14T11:10:25;1.50;;;0.80;;
51066;SDS011;37112;45.892;-123.962;2023-12-14T11:13:02;1.00;;;0.60;;
51066;SDS011;37112;45.892;-123.962;2023-12-14T11:15:40;1.40;;;0.90;;
51066;SDS011;37112;45.892;-123.962;2023-12-14T11:18:23;5.70;;;1.00;;
51066;SDS011;37112;45.892;-123.962;2023-12-14T11:20:59;0.70;;;0.70;;
51066;SDS011;37112;45.892;-123.962;2023-12-14T11:23:35;1.20;;;0.70;;
51066;SDS011;37112;45.892;-123.962;2023-12-14T11:26:09;1.00;;;0.80;;
51066;SDS011;37112;45.892;-123.962;2023-12-14T11:28:39;0.70;;;0.70;;
51066;SDS011;37112;45.892;-123.962;2023-12-14T11:31:14;2.30;;;1.00;;
51066;SDS011;37112;45.892;-123.962;2023-12-14T11:33:37;1.10;;;0.80;;
51066;SDS011;37112;45.892;-123.962;2023-12-14T11:36:05;0.90;;;0.80;;
51066;SDS011;37112;45.892;-123.962;2023-12-14T11:38:41;1.00;;;0.60;;
51066;SDS011;37112;45.892;-123.962;2023-12-14T11:41:06;1.20;;;0.90;;
51066;SDS011;37112;45.892;-123.962;2023-12-14T11:43:50;2.40;;;1.00;;
51066;SDS011;37112;45.892;-123.962;2023-12-14T11:46:25;1.80;;;1.00;;
51066;SDS011;37112;45.892;-123.962;2023-12-14T11:48:59;0.80;;;0.70;;
51066;SDS011;37112;45.892;-123.962;2023-12-14T11:51:32;5.70;;;0.80;;
51066;SDS011;37112;45.892;-123.962;2023-12-14T11:54:08;1.10;;;0.70;;
51066;SDS011;37112;45.892;-123.962;2023-12-14T11:56:47;1.70;;;0.90;;
51066;SDS011;37112;45.892;-123.962;2023-12-14T11:59:14;1.00;;;0.80;;
51066;SDS011;37112;45.892;-123.962;2023-12-14T12:01:58;1.20;;;0.90;;
51066;SDS011;37112;45.892;-123.962;2023-12-14T12:04:32;1.40;;;0.80;;
51066;SDS011;37112;45.892;-123.962;2023-12-14T12:07:06;2.30;;;0.70;;
51066;SDS011;37112;45.892;-123.962;2023-12-14T12:09:41;2.00;;;0.90;;
51066;SDS011;37112;45.892;-123.962;2023-12-14T12:12:14;0.60;;;0.60;;
51066;SDS011;37112;45.892;-123.962;2023-12-14T12:14:49;1.20;;;0.70;;
51066;SDS011;37112;45.892;-123.962;2023-12-14T12:17:24;1.10;;;0.80;;
51066;SDS011;37112;45.892;-123.962;2023-12-14T12:19:58;0.80;;;0.70;;
51066;SDS011;37112;45.892;-123.962;2023-12-14T12:22:32;1.00;;;0.70;;
51066;SDS011;37112;45.892;-123.962;2023-12-14T12:25:08;1.60;;;0.90;;
51066;SDS011;37112;45.892;-123.962;2023-12-14T12:27:41;0.80;;;0.60;;
51066;SDS011;37112;45.892;-123.962;2023-12-14T12:30:15;0.80;;;0.60;;
51066;SDS011;37112;45.892;-123.962;2023-12-14T12:32:42;2.90;;;0.80;;
51066;SDS011;37112;45.892;-123.962;2023-12-14T12:35:16;1.70;;;0.70;;
51066;SDS011;37112;45.892;-123.962;2023-12-14T12:37:51;1.10;;;0.70;;
51066;SDS011;37112;45.892;-123.962;2023-12-14T12:40:24;0.90;;;0.70;;
51066;SDS011;37112;45.892;-123.962;2023-12-14T12:42:59;1.10;;;0.70;;
51066;SDS011;37112;45.892;-123.962;2023-12-14T12:45:34;1.50;;;0.70;;
51066;SDS011;37112;45.892;-123.962;2023-12-14T12:48:09;0.60;;;0.60;;
51066;SDS011;37112;45.892;-123.962;2023-12-14T12:50:43;1.30;;;0.90;;
51066;SDS011;37112;45.892;-123.962;2023-12-14T12:53:17;0.50;;;0.50;;
51066;SDS011;37112;45.892;-123.962;2023-12-14T12:55:51;0.80;;;0.70;;
51066;SDS011;37112;45.892;-123.962;2023-12-14T12:58:13;1.40;;;0.70;;
51066;SDS011;37112;45.892;-123.962;2023-12-14T13:00:48;1.60;;;0.70;;
51066;SDS011;37112;45.892;-123.962;2023-12-14T13:03:23;0.80;;;0.60;;
51066;SDS011;37112;45.892;-123.962;2023-12-14T13:05:57;1.70;;;0.90;;
51066;SDS011;37112;45.892;-123.962;2023-12-14T13:08:31;1.10;;;0.60;;
51066;SDS011;37112;45.892;-123.962;2023-12-14T13:11:05;0.90;;;0.70;;
51066;SDS011;37112;45.892;-123.962;2023-12-14T13:13:39;0.60;;;0.60;;
51066;SDS011;37112;45.892;-123.962;2023-12-14T13:16:14;0.70;;;0.70;;
51066;SDS011;37112;45.892;-123.962;2023-12-14T13:18:53;1.70;;;1.10;;